Flight Track Log - Related Links

Times and Time Zones

All times are in EDT time to prevent confusion due to time zone crossing. See the JZA8364 flight status page for this flight to view local times or setup timezone preferences in your user account.

Time Position Orientation Groundspeed Altitude Reporting Facility
EDT Latitude Longitude Course Direction KTS MPH feet Rate Location/Type
Thu 12:18:14 PM 55.1333 -118.9167 125° Southeast 120 138 3,300  Level Edmonton Center
Thu 12:19:14 PM 55.1167 -118.8333 109° East 150 173 3,700 950 Climbing Edmonton Center
Thu 12:20:14 PM 55.0833 -118.7667 131° Southeast 180 207 5,200 1,400 Climbing Edmonton Center
Thu 12:21:14 PM 55.0667 -118.7000 114° Southeast 160 184 6,500 1,250 Climbing Edmonton Center
Thu 12:22:00 PM 54.9828 -118.3567 125° Southeast  Level FlightAware
Thu 12:22:14 PM 55.0500 -118.6333 114° Southeast 160 184 7,700  Level Edmonton Center
Thu 12:23:00 PM 54.9422 -118.2552 125° Southeast  Level FlightAware
Thu 12:23:14 PM 55.0167 -118.5667 131° Southeast 160 184 8,900  Level Edmonton Center
Thu 12:24:14 PM 55.0000 -118.5000 114° Southeast 170 196 10,000 1,100 Climbing Edmonton Center
Thu 12:25:14 PM 54.9667 -118.4333 131° Southeast 170 196 11,100 1,000 Climbing Edmonton Center
Thu 12:26:14 PM 54.9500 -118.3667 114° Southeast 170 196 12,000 850 Climbing Edmonton Center
Thu 12:27:14 PM 54.9167 -118.2833 125° Southeast 180 207 12,800 900 Climbing Edmonton Center
Thu 12:28:14 PM 54.8833 -118.1833 120° Southeast 190 219 13,800 900 Climbing Edmonton Center
Thu 12:29:14 PM 54.8500 -118.1167 131° Southeast 180 207 14,600 800 Climbing Edmonton Center
Thu 12:30:14 PM 54.8333 -118.0500 113° Southeast 190 219 15,400 800 Climbing Edmonton Center
Thu 12:31:14 PM 54.8000 -117.9833 131° Southeast 180 207 16,200 750 Climbing Edmonton Center
Thu 12:32:14 PM 54.7667 -117.9167 131° Southeast 180 207 16,900 700 Climbing Edmonton Center
Thu 12:33:14 PM 54.7500 -117.8500 113° Southeast 180 207 17,600 650 Climbing Edmonton Center
Thu 12:34:14 PM 54.7167 -117.7500 120° Southeast 180 207 18,200 600 Climbing Edmonton Center
Thu 12:35:14 PM 54.7000 -117.6833 113° Southeast 180 207 18,800 550 Climbing Edmonton Center
Thu 12:36:14 PM 54.6667 -117.6167 131° Southeast 180 207 19,300 550 Climbing Edmonton Center
Thu 12:37:14 PM 54.6167 -117.5333 136° Southeast 190 219 19,900 650 Climbing Edmonton Center
Thu 12:38:14 PM 54.6000 -117.4333 106° East 180 207 20,600 550 Climbing Edmonton Center
Thu 12:39:14 PM 54.5667 -117.3667 131° Southeast 180 207 21,000 200 Climbing Edmonton Center
Thu 12:40:14 PM 54.5500 -117.3000 113° Southeast 200 230 21,000  Level Edmonton Center
Thu 12:41:14 PM 54.5000 -117.2000 131° Southeast 210 242 21,000  Level Edmonton Center
Thu 12:42:14 PM 54.4833 -117.1333 113° Southeast 220 253 21,000  Level Edmonton Center
Thu 12:43:14 PM 54.4333 -117.0333 131° Southeast 230 265 21,000  Level Edmonton Center
Thu 12:44:14 PM 54.4000 -116.9333 120° Southeast 230 265 21,000  Level Edmonton Center
Thu 12:45:14 PM 54.3500 -116.8333 131° Southeast 230 265 21,000  Level Edmonton Center
Thu 12:46:14 PM 54.3333 -116.7333 106° East 240 276 21,000  Level Edmonton Center
Thu 12:47:14 PM 54.2833 -116.6667 142° Southeast 240 276 21,000  Level Edmonton Center
Thu 12:48:14 PM 54.2500 -116.5667 120° Southeast 240 276 21,000  Level Edmonton Center
Thu 12:49:14 PM 54.2167 -116.4667 120° Southeast 240 276 21,000  Level Edmonton Center
Thu 12:50:14 PM 54.1833 -116.3667 120° Southeast 240 276 21,000  Level Edmonton Center
Thu 12:51:14 PM 54.1333 -116.2667 130° Southeast 240 276 21,000  Level Edmonton Center
Thu 12:52:14 PM 54.1167 -116.1833 109° East 240 276 21,000  Level Edmonton Center
Thu 12:53:14 PM 54.0667 -116.0833 130° Southeast 240 276 21,000 -200 Level Edmonton Center
Thu 12:54:14 PM 54.0333 -115.9833 120° Southeast 240 276 20,600 -700 Descending Edmonton Center
Thu 12:55:14 PM 53.9833 -115.8833 130° Southeast 250 288 19,600 -800 Descending Edmonton Center
Thu 12:56:14 PM 53.9500 -115.7833 119° Southeast 250 288 19,000 -300 Descending Edmonton Center
Thu 12:57:14 PM 53.9000 -115.6833 130° Southeast 250 288 19,000  Level Edmonton Center
Thu 12:58:14 PM 53.8833 -115.5833 106° East 240 276 19,000 -100 Level Edmonton Center
Thu 12:59:14 PM 53.8333 -115.5167 142° Southeast 240 276 18,800 -350 Descending Edmonton Center
Thu 01:00:14 PM 53.8000 -115.4000 116° Southeast 250 288 18,300 -500 Descending Edmonton Center
Thu 01:01:14 PM 53.7500 -115.3167 135° Southeast 250 288 17,800 -500 Descending Edmonton Center
Thu 01:02:14 PM 53.7000 -115.2333 135° Southeast 260 299 17,300 -500 Descending Edmonton Center
Thu 01:03:14 PM 53.6667 -115.1000 113° Southeast 260 299 16,800 -500 Descending Edmonton Center
Thu 01:04:14 PM 53.6167 -115.0000 130° Southeast 260 299 16,300 -500 Descending Edmonton Center
Thu 01:05:14 PM 53.5833 -114.9000 119° Southeast 260 299 15,800 -750 Descending Edmonton Center
Thu 01:06:14 PM 53.5500 -114.7833 116° Southeast 260 299 14,800 -1,100 Descending Edmonton Center
Thu 01:07:14 PM 53.5500 -114.6667 90° East 250 288 13,600 -1,050 Descending Edmonton Center
Thu 01:08:14 PM 53.5167 -114.5833 124° Southeast 230 265 12,700 -950 Descending Edmonton Center
Thu 01:09:14 PM 53.5167 -114.4667 90° East 230 265 11,700 -1,000 Descending Edmonton Center
Thu 01:10:14 PM 53.4833 -114.3667 119° Southeast 230 265 10,700 -950 Descending Edmonton Center
Thu 01:11:14 PM 53.4833 -114.2833 90° East 220 253 9,800 -900 Descending Edmonton Center
Thu 01:12:14 PM 53.4500 -114.1667 116° Southeast 220 253 8,900 -900 Descending Edmonton Center
Thu 01:13:14 PM 53.4500 -114.0667 90° East 220 253 8,000 -950 Descending Edmonton Center
Thu 01:14:14 PM 53.4167 -113.9500 116° Southeast 210 242 7,000 -900 Descending Edmonton Center
Thu 01:15:14 PM 53.4167 -113.9000 90° East 190 219 6,200 -750 Descending Edmonton Center
Thu 01:16:14 PM 53.4000 -113.8000 106° East 160 184 5,500 -800 Descending Edmonton Center
Thu 01:17:14 PM 53.3500 -113.7667 158° South 170 196 4,600 -900 Descending Edmonton Center

Login

Don't have an account? Register now (free) for customized features, flight alerts, and more!